createdAt,value
2018-09-24T00:00:14.327Z,26.6
2018-09-24T00:10:13.388Z,26.6
2018-09-24T00:20:12.612Z,26.5
2018-09-24T00:30:11.840Z,26.5
2018-09-24T00:40:11.080Z,26.5
2018-09-24T00:50:10.306Z,26.5
2018-09-24T01:00:09.542Z,26.5
2018-09-24T01:10:08.775Z,26.5
2018-09-24T01:20:08.013Z,26.5
2018-09-24T01:30:07.239Z,26.5
2018-09-24T01:40:06.471Z,26.5
2018-09-24T01:50:05.702Z,26.5
2018-09-24T02:00:04.936Z,26.5
2018-09-24T02:10:04.162Z,26.5
2018-09-24T02:20:03.393Z,26.4
2018-09-24T02:30:02.630Z,26.4
2018-09-24T02:40:01.915Z,26.4
2018-09-24T02:50:01.138Z,26.4
2018-09-24T03:00:00.320Z,26.4
2018-09-24T03:09:59.551Z,26.4
2018-09-24T03:19:58.787Z,26.4
2018-09-24T03:29:58.019Z,26.4
2018-09-24T03:39:57.248Z,26.4
2018-09-24T03:49:56.477Z,26.4
2018-09-24T03:59:55.705Z,26.4
2018-09-24T04:09:55.040Z,26.5
2018-09-24T04:19:54.174Z,26.5
2018-09-24T04:29:53.403Z,26.5
2018-09-24T04:39:52.635Z,26.5
2018-09-24T04:49:51.865Z,26.5
2018-09-24T04:59:51.092Z,26.4
2018-09-24T05:09:50.324Z,26.4
2018-09-24T05:19:49.556Z,26.4
2018-09-24T05:29:48.792Z,26.3
2018-09-24T05:39:48.019Z,26.2
2018-09-24T05:49:47.252Z,26.1
2018-09-24T05:59:46.483Z,26.1
2018-09-24T06:09:45.722Z,25.9
2018-09-24T06:19:44.956Z,25.9
2018-09-24T06:29:44.177Z,25.9
2018-09-24T06:39:43.415Z,25.9
2018-09-24T06:49:42.662Z,25.9
2018-09-24T06:59:41.946Z,25.9
2018-09-24T07:09:41.106Z,25.9
2018-09-24T07:19:40.337Z,25.9
2018-09-24T07:29:39.576Z,25.9
2018-09-24T07:39:38.804Z,25.9
2018-09-24T07:49:38.042Z,25.9
2018-09-24T07:59:37.268Z,26
2018-09-24T08:09:36.506Z,26
2018-09-24T08:19:35.790Z,26
2018-09-24T08:29:34.968Z,26
2018-09-24T08:39:34.198Z,26
2018-09-24T08:49:33.454Z,26
2018-09-24T08:59:32.675Z,25.9
2018-09-24T09:09:31.954Z,25.9
2018-09-24T09:19:31.135Z,25.9
2018-09-24T09:29:30.429Z,25.9
2018-09-24T09:39:29.603Z,26
2018-09-24T09:49:28.834Z,25.9
2018-09-24T09:59:28.069Z,26
2018-09-24T10:09:27.303Z,25.9
2018-09-24T10:19:26.540Z,26
2018-09-24T10:29:25.767Z,26.1
2018-09-24T10:39:25.002Z,26.1
2018-09-24T10:49:24.238Z,26.1
2018-09-24T10:59:23.517Z,26.3
2018-09-24T11:09:22.703Z,26.3
2018-09-24T11:19:21.936Z,26.3
2018-09-24T11:29:21.258Z,26.4
2018-09-24T11:39:20.412Z,26.4
2018-09-24T11:49:19.639Z,26.3
2018-09-24T11:59:18.866Z,26.3
2018-09-24T12:09:18.103Z,26.3
2018-09-24T12:19:17.339Z,26.4
2018-09-24T12:29:16.567Z,26.6
2018-09-24T12:39:15.813Z,26.7
2018-09-24T12:49:15.034Z,26.8
2018-09-24T12:59:14.268Z,26.8
2018-09-24T13:09:13.496Z,26.8
2018-09-24T13:19:12.771Z,26.9
2018-09-24T13:29:11.962Z,26.9
2018-09-24T13:39:11.193Z,26.8
2018-09-24T13:49:10.427Z,26.6
2018-09-24T13:59:09.661Z,26.4
2018-09-24T14:09:08.891Z,26.3
2018-09-24T14:19:08.124Z,26.3
2018-09-24T14:29:07.356Z,26.3
2018-09-24T14:39:06.592Z,26.4
2018-09-24T14:49:05.825Z,26.4
2018-09-24T14:59:05.060Z,26.3
2018-09-24T15:09:04.293Z,26.3
2018-09-24T15:19:03.530Z,26.3
2018-09-24T15:29:02.803Z,26.3
2018-09-24T15:39:01.998Z,26.3
2018-09-24T15:49:01.233Z,26.3
2018-09-24T15:59:00.465Z,26.2
2018-09-24T16:08:59.803Z,26.2
2018-09-24T16:18:58.934Z,26.3
2018-09-24T16:28:58.172Z,26.4
2018-09-24T16:38:57.409Z,26.3
2018-09-24T16:48:56.634Z,26.4
2018-09-24T16:58:55.869Z,26.3
2018-09-24T17:08:55.112Z,26.2
2018-09-24T17:18:54.339Z,26.1
2018-09-24T17:28:53.576Z,26.1
2018-09-24T17:38:52.805Z,26
2018-09-24T17:48:52.041Z,26
2018-09-24T17:58:51.267Z,26
2018-09-24T18:08:50.506Z,26.2
2018-09-24T18:18:49.739Z,26.1
2018-09-24T18:28:48.971Z,26
2018-09-24T18:38:48.204Z,25.9
2018-09-24T18:48:47.436Z,25.3
2018-09-24T18:58:46.670Z,25
2018-09-24T19:08:45.904Z,25.2
2018-09-24T19:18:45.148Z,25.4
2018-09-24T19:28:44.380Z,25.4
2018-09-24T19:38:43.652Z,25.5
2018-09-24T19:48:42.834Z,25.6
2018-09-24T19:58:42.077Z,25.8
2018-09-24T20:08:41.304Z,25.8
2018-09-24T20:18:40.536Z,25.8
2018-09-24T20:28:39.767Z,25.8
2018-09-24T20:38:39.001Z,25.8
2018-09-24T20:48:38.231Z,25.8
2018-09-24T20:58:37.463Z,25.8
2018-09-24T21:08:36.694Z,25.8
2018-09-24T21:18:35.960Z,25.8
2018-09-24T21:28:35.158Z,25.9
2018-09-24T21:38:34.396Z,25.9
2018-09-24T21:48:33.628Z,25.9
2018-09-24T21:58:32.851Z,25.9
2018-09-24T22:08:32.076Z,25.8
2018-09-24T22:18:31.321Z,25.9
2018-09-24T22:28:30.551Z,25.8
2018-09-24T22:38:29.779Z,25.8
2018-09-24T22:48:29.010Z,25.8
2018-09-24T22:58:28.240Z,25.8
2018-09-24T23:08:27.460Z,25.8
2018-09-24T23:18:26.692Z,25.8
2018-09-24T23:28:25.928Z,25.8
2018-09-24T23:38:25.157Z,25.8
2018-09-24T23:48:24.387Z,25.8
2018-09-24T23:58:23.612Z,25.7
